sensor_id;sensor_type;location;lat;lon;timestamp;temperature;humidity
38456;DHT22;24237;50.106;20.014;2022-09-20T00:00:45;12.60;99.90
38456;DHT22;24237;50.106;20.014;2022-09-20T00:03:12;12.40;99.90
38456;DHT22;24237;50.106;20.014;2022-09-20T00:05:39;12.40;99.90
38456;DHT22;24237;50.106;20.014;2022-09-20T00:08:07;12.60;99.90
38456;DHT22;24237;50.106;20.014;2022-09-20T00:10:33;12.60;99.90
38456;DHT22;24237;50.106;20.014;2022-09-20T00:13:07;12.70;99.90
38456;DHT22;24237;50.106;20.014;2022-09-20T00:15:33;12.50;99.90
38456;DHT22;24237;50.106;20.014;2022-09-20T00:17:59;12.40;99.90
38456;DHT22;24237;50.106;20.014;2022-09-20T00:20:25;12.50;99.90
38456;DHT22;24237;50.106;20.014;2022-09-20T00:22:51;12.40;99.90
38456;DHT22;24237;50.106;20.014;2022-09-20T00:25:19;12.40;99.90
38456;DHT22;24237;50.106;20.014;2022-09-20T00:27:46;12.40;99.90
38456;DHT22;24237;50.106;20.014;2022-09-20T00:30:12;12.30;99.90
38456;DHT22;24237;50.106;20.014;2022-09-20T00:32:39;12.40;99.90
38456;DHT22;24237;50.106;20.014;2022-09-20T00:35:06;12.50;99.90
38456;DHT22;24237;50.106;20.014;2022-09-20T00:37:33;12.50;99.90
38456;DHT22;24237;50.106;20.014;2022-09-20T00:39:58;12.50;99.90
38456;DHT22;24237;50.106;20.014;2022-09-20T00:42:29;12.60;99.90
38456;DHT22;24237;50.106;20.014;2022-09-20T00:44:57;12.70;99.90
38456;DHT22;24237;50.106;20.014;2022-09-20T00:47:41;12.70;99.90
38456;DHT22;24237;50.106;20.014;2022-09-20T00:52:41;12.60;99.90
38456;DHT22;24237;50.106;20.014;2022-09-20T00:55:09;12.70;99.90
38456;DHT22;24237;50.106;20.014;2022-09-20T00:57:36;12.80;99.90
38456;DHT22;24237;50.106;20.014;2022-09-20T01:00:07;12.70;99.90
38456;DHT22;24237;50.106;20.014;2022-09-20T01:02:35;12.80;99.90
38456;DHT22;24237;50.106;20.014;2022-09-20T01:05:02;13.00;99.90
38456;DHT22;24237;50.106;20.014;2022-09-20T01:07:28;12.90;99.90
38456;DHT22;24237;50.106;20.014;2022-09-20T01:09:54;12.80;99.90
38456;DHT22;24237;50.106;20.014;2022-09-20T01:12:22;12.80;99.90
38456;DHT22;24237;50.106;20.014;2022-09-20T01:14:50;12.80;99.90
38456;DHT22;24237;50.106;20.014;2022-09-20T01:17:18;12.60;99.90
38456;DHT22;24237;50.106;20.014;2022-09-20T01:27:56;12.70;99.90
38456;DHT22;24237;50.106;20.014;2022-09-20T01:30:30;12.70;99.90
38456;DHT22;24237;50.106;20.014;2022-09-20T01:35:26;12.60;99.90
38456;DHT22;24237;50.106;20.014;2022-09-20T01:38:19;12.80;99.90
38456;DHT22;24237;50.106;20.014;2022-09-20T01:43:30;12.90;99.90
38456;DHT22;24237;50.106;20.014;2022-09-20T01:48:41;12.70;99.90
38456;DHT22;24237;50.106;20.014;2022-09-20T01:51:33;12.80;99.90
38456;DHT22;24237;50.106;20.014;2022-09-20T01:59:44;12.90;99.90
38456;DHT22;24237;50.106;20.014;2022-09-20T02:02:34;13.00;99.90
38456;DHT22;24237;50.106;20.014;2022-09-20T02:11:07;12.90;99.90
38456;DHT22;24237;50.106;20.014;2022-09-20T02:13:44;13.00;99.90
38456;DHT22;24237;50.106;20.014;2022-09-20T02:22:20;12.90;99.90
38456;DHT22;24237;50.106;20.014;2022-09-20T02:25:06;12.80;99.90
38456;DHT22;24237;50.106;20.014;2022-09-20T02:28:15;12.80;99.90
38456;DHT22;24237;50.106;20.014;2022-09-20T02:33:40;12.90;99.90
38456;DHT22;24237;50.106;20.014;2022-09-20T02:39:18;12.90;99.90
38456;DHT22;24237;50.106;20.014;2022-09-20T02:41:55;13.10;99.90
38456;DHT22;24237;50.106;20.014;2022-09-20T02:44:35;13.10;99.90
38456;DHT22;24237;50.106;20.014;2022-09-20T02:47:21;13.10;99.90
38456;DHT22;24237;50.106;20.014;2022-09-20T02:50:07;13.00;99.90
38456;DHT22;24237;50.106;20.014;2022-09-20T03:01:16;13.20;99.90
38456;DHT22;24237;50.106;20.014;2022-09-20T03:17:48;13.20;99.90
38456;DHT22;24237;50.106;20.014;2022-09-20T03:20:47;13.10;99.90
38456;DHT22;24237;50.106;20.014;2022-09-20T03:31:46;12.90;99.90
38456;DHT22;24237;50.106;20.014;2022-09-20T03:42:51;12.90;99.90
38456;DHT22;24237;50.106;20.014;2022-09-20T03:59:47;13.00;99.90
38456;DHT22;24237;50.106;20.014;2022-09-20T04:05:22;12.90;99.90
38456;DHT22;24237;50.106;20.014;2022-09-20T04:11:00;12.90;99.90
38456;DHT22;24237;50.106;20.014;2022-09-20T04:13:38;12.70;99.90
38456;DHT22;24237;50.106;20.014;2022-09-20T04:16:34;12.80;99.90
38456;DHT22;24237;50.106;20.014;2022-09-20T04:21:57;12.80;99.90
38456;DHT22;24237;50.106;20.014;2022-09-20T04:27:02;12.80;99.90
38456;DHT22;24237;50.106;20.014;2022-09-20T04:29:56;13.00;99.90
38456;DHT22;24237;50.106;20.014;2022-09-20T04:32:38;12.60;99.90
38456;DHT22;24237;50.106;20.014;2022-09-20T04:38:02;12.80;99.90
38456;DHT22;24237;50.106;20.014;2022-09-20T04:46:26;12.60;99.90
38456;DHT22;24237;50.106;20.014;2022-09-20T04:52:11;12.70;99.90
38456;DHT22;24237;50.106;20.014;2022-09-20T05:00:17;12.70;99.90
38456;DHT22;24237;50.106;20.014;2022-09-20T05:27:46;13.00;99.90
38456;DHT22;24237;50.106;20.014;2022-09-20T05:33:36;13.20;99.90
38456;DHT22;24237;50.106;20.014;2022-09-20T05:41:57;13.30;99.90
38456;DHT22;24237;50.106;20.014;2022-09-20T05:48:04;13.40;99.90
38456;DHT22;24237;50.106;20.014;2022-09-20T06:01:41;13.30;99.90
38456;DHT22;24237;50.106;20.014;2022-09-20T06:04:37;13.50;99.90
38456;DHT22;24237;50.106;20.014;2022-09-20T06:07:20;13.50;99.90
38456;DHT22;24237;50.106;20.014;2022-09-20T06:12:59;13.40;99.90
38456;DHT22;24237;50.106;20.014;2022-09-20T06:23:46;13.50;99.90
38456;DHT22;24237;50.106;20.014;2022-09-20T06:26:24;13.20;99.90
38456;DHT22;24237;50.106;20.014;2022-09-20T06:28:54;13.40;99.90
38456;DHT22;24237;50.106;20.014;2022-09-20T06:31:22;13.50;99.90
38456;DHT22;24237;50.106;20.014;2022-09-20T06:34:02;13.50;99.90
38456;DHT22;24237;50.106;20.014;2022-09-20T06:36:33;13.80;99.90
38456;DHT22;24237;50.106;20.014;2022-09-20T06:39:42;13.70;99.90
38456;DHT22;24237;50.106;20.014;2022-09-20T06:42:27;13.50;99.90
38456;DHT22;24237;50.106;20.014;2022-09-20T06:44:54;13.50;99.90
38456;DHT22;24237;50.106;20.014;2022-09-20T06:47:20;13.50;99.90
38456;DHT22;24237;50.106;20.014;2022-09-20T06:49:47;13.60;99.90
38456;DHT22;24237;50.106;20.014;2022-09-20T06:52:16;13.40;99.90
38456;DHT22;24237;50.106;20.014;2022-09-20T06:54:47;13.30;99.90
38456;DHT22;24237;50.106;20.014;2022-09-20T06:57:22;13.40;99.90
38456;DHT22;24237;50.106;20.014;2022-09-20T06:59:48;13.30;99.90
38456;DHT22;24237;50.106;20.014;2022-09-20T07:02:14;13.40;99.90
38456;DHT22;24237;50.106;20.014;2022-09-20T07:04:40;13.40;99.90
38456;DHT22;24237;50.106;20.014;2022-09-20T07:07:06;13.30;99.90
38456;DHT22;24237;50.106;20.014;2022-09-20T07:09:33;13.50;99.90
38456;DHT22;24237;50.106;20.014;2022-09-20T07:11:59;13.40;99.90
38456;DHT22;24237;50.106;20.014;2022-09-20T07:14:26;13.20;99.90
38456;DHT22;24237;50.106;20.014;2022-09-20T07:16:53;13.50;99.90
38456;DHT22;24237;50.106;20.014;2022-09-20T07:19:19;13.50;99.90
38456;DHT22;24237;50.106;20.014;2022-09-20T07:21:45;13.70;99.90
38456;DHT22;24237;50.106;20.014;2022-09-20T07:24:10;13.80;99.90
38456;DHT22;24237;50.106;20.014;2022-09-20T07:28:02;14.00;99.90
38456;DHT22;24237;50.106;20.014;2022-09-20T07:30:27;14.00;99.90
38456;DHT22;24237;50.106;20.014;2022-09-20T07:32:53;14.20;99.90
38456;DHT22;24237;50.106;20.014;2022-09-20T07:35:19;14.20;99.90
38456;DHT22;24237;50.106;20.014;2022-09-20T07:37:44;14.30;99.90
38456;DHT22;24237;50.106;20.014;2022-09-20T07:40:10;14.40;99.90
38456;DHT22;24237;50.106;20.014;2022-09-20T07:42:36;14.20;99.90
38456;DHT22;24237;50.106;20.014;2022-09-20T07:45:02;14.50;99.90
38456;DHT22;24237;50.106;20.014;2022-09-20T07:47:29;14.80;99.90
38456;DHT22;24237;50.106;20.014;2022-09-20T07:49:56;15.00;99.90
38456;DHT22;24237;50.106;20.014;2022-09-20T07:52:22;15.00;99.90
38456;DHT22;24237;50.106;20.014;2022-09-20T07:54:47;14.90;99.90
38456;DHT22;24237;50.106;20.014;2022-09-20T07:57:14;14.90;99.90
38456;DHT22;24237;50.106;20.014;2022-09-20T07:59:40;15.20;99.90
38456;DHT22;24237;50.106;20.014;2022-09-20T08:02:06;15.30;99.90
38456;DHT22;24237;50.106;20.014;2022-09-20T08:04:32;15.30;99.90
38456;DHT22;24237;50.106;20.014;2022-09-20T08:06:57;15.10;99.90
38456;DHT22;24237;50.106;20.014;2022-09-20T08:09:23;15.10;99.90
38456;DHT22;24237;50.106;20.014;2022-09-20T08:11:49;14.80;99.90
38456;DHT22;24237;50.106;20.014;2022-09-20T08:14:16;14.90;99.90
38456;DHT22;24237;50.106;20.014;2022-09-20T08:16:46;14.60;99.90
38456;DHT22;24237;50.106;20.014;2022-09-20T08:19:17;14.90;99.90
38456;DHT22;24237;50.106;20.014;2022-09-20T08:21:44;15.10;99.90
38456;DHT22;24237;50.106;20.014;2022-09-20T08:24:09;15.30;99.90
38456;DHT22;24237;50.106;20.014;2022-09-20T08:26:39;14.90;99.90
38456;DHT22;24237;50.106;20.014;2022-09-20T08:29:08;15.10;99.90
38456;DHT22;24237;50.106;20.014;2022-09-20T08:31:36;15.20;99.90
38456;DHT22;24237;50.106;20.014;2022-09-20T08:34:04;15.30;99.90
38456;DHT22;24237;50.106;20.014;2022-09-20T08:36:32;15.30;99.90
38456;DHT22;24237;50.106;20.014;2022-09-20T08:38:58;15.40;99.90
38456;DHT22;24237;50.106;20.014;2022-09-20T08:41:31;15.40;99.90
38456;DHT22;24237;50.106;20.014;2022-09-20T08:44:10;15.60;99.90
38456;DHT22;24237;50.106;20.014;2022-09-20T08:46:48;15.60;99.90
38456;DHT22;24237;50.106;20.014;2022-09-20T08:49:24;15.50;99.90
38456;DHT22;24237;50.106;20.014;2022-09-20T08:51:51;15.50;99.90
38456;DHT22;24237;50.106;20.014;2022-09-20T08:54:18;15.60;99.90
38456;DHT22;24237;50.106;20.014;2022-09-20T08:56:44;15.90;99.90
38456;DHT22;24237;50.106;20.014;2022-09-20T08:59:16;15.90;99.90
38456;DHT22;24237;50.106;20.014;2022-09-20T09:01:45;15.80;99.90
38456;DHT22;24237;50.106;20.014;2022-09-20T09:06:42;16.30;99.90
38456;DHT22;24237;50.106;20.014;2022-09-20T09:09:20;16.50;99.90
38456;DHT22;24237;50.106;20.014;2022-09-20T09:11:48;16.70;99.90
38456;DHT22;24237;50.106;20.014;2022-09-20T09:14:32;16.50;99.90
38456;DHT22;24237;50.106;20.014;2022-09-20T09:17:18;16.10;99.90
38456;DHT22;24237;50.106;20.014;2022-09-20T09:22:19;15.60;99.90
38456;DHT22;24237;50.106;20.014;2022-09-20T09:24:45;15.30;99.90
38456;DHT22;24237;50.106;20.014;2022-09-20T09:27:16;15.30;99.90
38456;DHT22;24237;50.106;20.014;2022-09-20T09:29:51;15.30;99.90
38456;DHT22;24237;50.106;20.014;2022-09-20T09:32:37;15.30;99.90
38456;DHT22;24237;50.106;20.014;2022-09-20T09:35:23;15.50;99.90
38456;DHT22;24237;50.106;20.014;2022-09-20T09:37:58;15.90;99.90
38456;DHT22;24237;50.106;20.014;2022-09-20T09:40:25;15.90;99.90
38456;DHT22;24237;50.106;20.014;2022-09-20T09:42:56;15.60;99.90
38456;DHT22;24237;50.106;20.014;2022-09-20T09:45:34;15.30;99.90
38456;DHT22;24237;50.106;20.014;2022-09-20T09:48:34;15.40;99.90
38456;DHT22;24237;50.106;20.014;2022-09-20T09:51:09;15.80;99.90
38456;DHT22;24237;50.106;20.014;2022-09-20T09:53:36;15.70;99.90
38456;DHT22;24237;50.106;20.014;2022-09-20T09:58:56;14.80;99.90
38456;DHT22;24237;50.106;20.014;2022-09-20T10:01:42;14.00;99.90
38456;DHT22;24237;50.106;20.014;2022-09-20T10:07:03;13.50;99.90
38456;DHT22;24237;50.106;20.014;2022-09-20T10:15:27;13.30;99.90
38456;DHT22;24237;50.106;20.014;2022-09-20T10:18:11;13.40;99.90
38456;DHT22;24237;50.106;20.014;2022-09-20T10:21:05;13.50;99.90
38456;DHT22;24237;50.106;20.014;2022-09-20T10:24:02;14.10;99.90
38456;DHT22;24237;50.106;20.014;2022-09-20T10:26:48;14.60;99.90
38456;DHT22;24237;50.106;20.014;2022-09-20T10:29:26;14.90;99.90
38456;DHT22;24237;50.106;20.014;2022-09-20T10:37:56;15.00;99.90
38456;DHT22;24237;50.106;20.014;2022-09-20T10:40:42;15.40;99.90
38456;DHT22;24237;50.106;20.014;2022-09-20T10:44:09;15.40;99.90
38456;DHT22;24237;50.106;20.014;2022-09-20T10:50:06;15.30;99.90
38456;DHT22;24237;50.106;20.014;2022-09-20T10:55:52;14.40;99.90
38456;DHT22;24237;50.106;20.014;2022-09-20T10:58:43;14.50;99.90
38456;DHT22;24237;50.106;20.014;2022-09-20T11:01:22;14.80;99.90
38456;DHT22;24237;50.106;20.014;2022-09-20T11:04:01;15.20;99.90
38456;DHT22;24237;50.106;20.014;2022-09-20T11:06:54;15.70;99.90
38456;DHT22;24237;50.106;20.014;2022-09-20T11:09:26;16.30;99.90
38456;DHT22;24237;50.106;20.014;2022-09-20T11:15:03;17.10;99.90
38456;DHT22;24237;50.106;20.014;2022-09-20T11:17:34;17.10;99.90
38456;DHT22;24237;50.106;20.014;2022-09-20T11:20:06;16.80;99.90
38456;DHT22;24237;50.106;20.014;2022-09-20T11:22:42;16.30;99.90
38456;DHT22;24237;50.106;20.014;2022-09-20T11:25:19;16.20;99.90
38456;DHT22;24237;50.106;20.014;2022-09-20T11:28:06;16.20;99.90
38456;DHT22;24237;50.106;20.014;2022-09-20T11:30:44;16.20;99.90
38456;DHT22;24237;50.106;20.014;2022-09-20T11:33:22;16.20;99.90
38456;DHT22;24237;50.106;20.014;2022-09-20T11:35:52;15.90;99.90
38456;DHT22;24237;50.106;20.014;2022-09-20T11:38:36;15.90;99.90
38456;DHT22;24237;50.106;20.014;2022-09-20T11:41:21;15.80;99.90
38456;DHT22;24237;50.106;20.014;2022-09-20T11:43:50;15.50;99.90
38456;DHT22;24237;50.106;20.014;2022-09-20T11:46:53;15.90;99.90
38456;DHT22;24237;50.106;20.014;2022-09-20T11:49:24;16.00;99.90
38456;DHT22;24237;50.106;20.014;2022-09-20T11:54:53;16.10;99.90
38456;DHT22;24237;50.106;20.014;2022-09-20T11:57:22;16.20;99.90
38456;DHT22;24237;50.106;20.014;2022-09-20T11:59:54;16.40;99.90
38456;DHT22;24237;50.106;20.014;2022-09-20T12:02:47;16.70;99.90
38456;DHT22;24237;50.106;20.014;2022-09-20T12:05:30;17.90;99.90
38456;DHT22;24237;50.106;20.014;2022-09-20T12:08:01;19.20;99.90
38456;DHT22;24237;50.106;20.014;2022-09-20T12:10:32;19.60;99.90
38456;DHT22;24237;50.106;20.014;2022-09-20T12:13:04;19.30;99.90
38456;DHT22;24237;50.106;20.014;2022-09-20T12:15:35;18.70;99.90
38456;DHT22;24237;50.106;20.014;2022-09-20T12:26:11;18.90;99.90
38456;DHT22;24237;50.106;20.014;2022-09-20T12:28:59;18.20;99.90
38456;DHT22;24237;50.106;20.014;2022-09-20T12:39:19;20.80;99.90
38456;DHT22;24237;50.106;20.014;2022-09-20T12:49:49;24.60;95.20
38456;DHT22;24237;50.106;20.014;2022-09-20T13:09:03;16.60;99.90
38456;DHT22;24237;50.106;20.014;2022-09-20T13:11:42;16.00;99.90
38456;DHT22;24237;50.106;20.014;2022-09-20T13:14:13;15.10;99.90
38456;DHT22;24237;50.106;20.014;2022-09-20T13:16:53;14.40;99.90
38456;DHT22;24237;50.106;20.014;2022-09-20T13:19:31;14.20;99.90
38456;DHT22;24237;50.106;20.014;2022-09-20T13:24:28;14.80;99.90
38456;DHT22;24237;50.106;20.014;2022-09-20T13:27:00;15.10;99.90
38456;DHT22;24237;50.106;20.014;2022-09-20T13:29:38;15.50;99.90
38456;DHT22;24237;50.106;20.014;2022-09-20T13:32:30;15.50;99.90
38456;DHT22;24237;50.106;20.014;2022-09-20T13:37:33;15.90;99.90
38456;DHT22;24237;50.106;20.014;2022-09-20T13:39:59;16.00;99.90
38456;DHT22;24237;50.106;20.014;2022-09-20T13:42:27;16.80;99.90
38456;DHT22;24237;50.106;20.014;2022-09-20T13:44:55;17.60;99.90
38456;DHT22;24237;50.106;20.014;2022-09-20T13:47:29;19.50;99.90
38456;DHT22;24237;50.106;20.014;2022-09-20T13:52:50;21.20;98.40
38456;DHT22;24237;50.106;20.014;2022-09-20T13:55:25;21.20;97.80
38456;DHT22;24237;50.106;20.014;2022-09-20T13:57:52;19.80;99.30
38456;DHT22;24237;50.106;20.014;2022-09-20T14:00:19;19.10;99.90
38456;DHT22;24237;50.106;20.014;2022-09-20T14:02:47;18.50;99.90
38456;DHT22;24237;50.106;20.014;2022-09-20T14:05:16;18.10;99.90
38456;DHT22;24237;50.106;20.014;2022-09-20T14:07:44;18.90;99.90
38456;DHT22;24237;50.106;20.014;2022-09-20T14:10:34;19.60;99.90
38456;DHT22;24237;50.106;20.014;2022-09-20T14:13:06;20.90;99.20
38456;DHT22;24237;50.106;20.014;2022-09-20T14:15:41;21.80;98.40
38456;DHT22;24237;50.106;20.014;2022-09-20T14:18:12;21.60;98.10
38456;DHT22;24237;50.106;20.014;2022-09-20T14:20:40;20.70;98.80
38456;DHT22;24237;50.106;20.014;2022-09-20T14:23:23;19.70;99.90
38456;DHT22;24237;50.106;20.014;2022-09-20T14:28:40;18.80;99.90
38456;DHT22;24237;50.106;20.014;2022-09-20T14:31:11;19.00;99.90
38456;DHT22;24237;50.106;20.014;2022-09-20T14:33:44;18.90;99.90
38456;DHT22;24237;50.106;20.014;2022-09-20T14:36:15;18.40;99.90
38456;DHT22;24237;50.106;20.014;2022-09-20T14:38:43;18.40;99.90
38456;DHT22;24237;50.106;20.014;2022-09-20T14:41:11;18.40;99.90
38456;DHT22;24237;50.106;20.014;2022-09-20T14:43:37;18.80;99.90
38456;DHT22;24237;50.106;20.014;2022-09-20T14:46:10;19.90;99.90
38456;DHT22;24237;50.106;20.014;2022-09-20T14:48:39;20.80;99.90
38456;DHT22;24237;50.106;20.014;2022-09-20T14:51:10;21.50;99.30
38456;DHT22;24237;50.106;20.014;2022-09-20T14:53:49;22.00;97.40
38456;DHT22;24237;50.106;20.014;2022-09-20T14:56:16;21.80;97.30
38456;DHT22;24237;50.106;20.014;2022-09-20T14:59:23;21.80;97.20
38456;DHT22;24237;50.106;20.014;2022-09-20T15:02:11;20.40;98.60
38456;DHT22;24237;50.106;20.014;2022-09-20T15:04:38;18.80;99.90
38456;DHT22;24237;50.106;20.014;2022-09-20T15:07:06;18.30;99.90
38456;DHT22;24237;50.106;20.014;2022-09-20T15:09:33;18.10;99.90
38456;DHT22;24237;50.106;20.014;2022-09-20T15:12:05;17.80;99.90
38456;DHT22;24237;50.106;20.014;2022-09-20T15:14:31;17.60;99.90
38456;DHT22;24237;50.106;20.014;2022-09-20T15:16:58;18.10;99.90
38456;DHT22;24237;50.106;20.014;2022-09-20T15:19:24;18.00;99.90
38456;DHT22;24237;50.106;20.014;2022-09-20T15:21:50;17.80;99.90
38456;DHT22;24237;50.106;20.014;2022-09-20T15:24:15;17.70;99.90
38456;DHT22;24237;50.106;20.014;2022-09-20T15:26:43;17.70;99.90
38456;DHT22;24237;50.106;20.014;2022-09-20T15:29:14;17.50;99.90
38456;DHT22;24237;50.106;20.014;2022-09-20T15:31:40;17.50;99.90
38456;DHT22;24237;50.106;20.014;2022-09-20T15:34:06;17.80;99.90
38456;DHT22;24237;50.106;20.014;2022-09-20T15:36:32;18.20;99.90
38456;DHT22;24237;50.106;20.014;2022-09-20T15:38:58;18.10;99.90
38456;DHT22;24237;50.106;20.014;2022-09-20T15:41:23;18.00;99.90
38456;DHT22;24237;50.106;20.014;2022-09-20T15:43:49;17.50;99.90
38456;DHT22;24237;50.106;20.014;2022-09-20T15:46:22;17.90;99.90
38456;DHT22;24237;50.106;20.014;2022-09-20T15:48:50;18.60;99.90
38456;DHT22;24237;50.106;20.014;2022-09-20T15:51:16;18.60;99.90
38456;DHT22;24237;50.106;20.014;2022-09-20T15:53:46;18.40;99.90
38456;DHT22;24237;50.106;20.014;2022-09-20T15:56:23;18.10;99.90
38456;DHT22;24237;50.106;20.014;2022-09-20T15:58:54;17.60;99.90
38456;DHT22;24237;50.106;20.014;2022-09-20T16:01:24;17.80;99.90
38456;DHT22;24237;50.106;20.014;2022-09-20T16:03:51;17.80;99.90
38456;DHT22;24237;50.106;20.014;2022-09-20T16:06:18;17.80;99.90
38456;DHT22;24237;50.106;20.014;2022-09-20T16:08:44;17.40;99.90
38456;DHT22;24237;50.106;20.014;2022-09-20T16:11:12;16.90;99.90
38456;DHT22;24237;50.106;20.014;2022-09-20T16:13:38;16.50;99.90
38456;DHT22;24237;50.106;20.014;2022-09-20T16:16:05;16.20;99.90
38456;DHT22;24237;50.106;20.014;2022-09-20T16:18:31;15.70;99.90
38456;DHT22;24237;50.106;20.014;2022-09-20T16:21:17;15.10;99.90
38456;DHT22;24237;50.106;20.014;2022-09-20T16:23:48;14.60;99.90
38456;DHT22;24237;50.106;20.014;2022-09-20T16:26:14;14.30;99.90
38456;DHT22;24237;50.106;20.014;2022-09-20T16:28:41;14.40;99.90
38456;DHT22;24237;50.106;20.014;2022-09-20T16:31:28;14.40;99.90
38456;DHT22;24237;50.106;20.014;2022-09-20T16:33:55;14.20;99.90
38456;DHT22;24237;50.106;20.014;2022-09-20T16:36:20;14.50;99.90
38456;DHT22;24237;50.106;20.014;2022-09-20T16:38:49;14.20;99.90
38456;DHT22;24237;50.106;20.014;2022-09-20T16:41:14;14.20;99.90
38456;DHT22;24237;50.106;20.014;2022-09-20T16:43:41;14.10;99.90
38456;DHT22;24237;50.106;20.014;2022-09-20T16:46:07;14.20;99.90
38456;DHT22;24237;50.106;20.014;2022-09-20T16:48:33;14.20;99.90
38456;DHT22;24237;50.106;20.014;2022-09-20T16:51:00;14.00;99.90
38456;DHT22;24237;50.106;20.014;2022-09-20T16:53:27;14.10;99.90
38456;DHT22;24237;50.106;20.014;2022-09-20T16:55:53;14.10;99.90
38456;DHT22;24237;50.106;20.014;2022-09-20T16:58:27;14.10;99.90
38456;DHT22;24237;50.106;20.014;2022-09-20T17:01:03;14.00;99.90
38456;DHT22;24237;50.106;20.014;2022-09-20T17:03:29;13.80;99.90
38456;DHT22;24237;50.106;20.014;2022-09-20T17:06:05;13.90;99.90
38456;DHT22;24237;50.106;20.014;2022-09-20T17:08:31;13.70;99.90
38456;DHT22;24237;50.106;20.014;2022-09-20T17:11:24;13.50;99.90
38456;DHT22;24237;50.106;20.014;2022-09-20T17:13:51;13.50;99.90
38456;DHT22;24237;50.106;20.014;2022-09-20T17:16:20;13.60;99.90
38456;DHT22;24237;50.106;20.014;2022-09-20T17:18:54;13.70;99.90
38456;DHT22;24237;50.106;20.014;2022-09-20T17:21:21;13.90;99.90
38456;DHT22;24237;50.106;20.014;2022-09-20T17:23:48;13.90;99.90
38456;DHT22;24237;50.106;20.014;2022-09-20T17:26:25;13.90;99.90
38456;DHT22;24237;50.106;20.014;2022-09-20T17:28:53;13.90;99.90
38456;DHT22;24237;50.106;20.014;2022-09-20T17:31:24;14.00;99.90
38456;DHT22;24237;50.106;20.014;2022-09-20T17:33:53;13.80;99.90
38456;DHT22;24237;50.106;20.014;2022-09-20T17:36:19;13.80;99.90
38456;DHT22;24237;50.106;20.014;2022-09-20T17:38:47;13.70;99.90
38456;DHT22;24237;50.106;20.014;2022-09-20T17:41:18;13.60;99.90
38456;DHT22;24237;50.106;20.014;2022-09-20T17:43:44;13.70;99.90
38456;DHT22;24237;50.106;20.014;2022-09-20T17:48:41;13.70;99.90
38456;DHT22;24237;50.106;20.014;2022-09-20T17:51:09;13.60;99.90
38456;DHT22;24237;50.106;20.014;2022-09-20T17:53:35;13.70;99.90
38456;DHT22;24237;50.106;20.014;2022-09-20T17:56:02;13.70;99.90
38456;DHT22;24237;50.106;20.014;2022-09-20T17:58:28;13.80;99.90
38456;DHT22;24237;50.106;20.014;2022-09-20T18:01:01;13.80;99.90
38456;DHT22;24237;50.106;20.014;2022-09-20T18:03:26;13.70;99.90
38456;DHT22;24237;50.106;20.014;2022-09-20T18:05:52;13.70;99.90
38456;DHT22;24237;50.106;20.014;2022-09-20T18:08:18;13.80;99.90
38456;DHT22;24237;50.106;20.014;2022-09-20T18:10:56;13.80;99.90
38456;DHT22;24237;50.106;20.014;2022-09-20T18:13:23;13.60;99.90
38456;DHT22;24237;50.106;20.014;2022-09-20T18:15:52;13.70;99.90
38456;DHT22;24237;50.106;20.014;2022-09-20T18:18:17;13.70;99.90
38456;DHT22;24237;50.106;20.014;2022-09-20T18:20:44;13.60;99.90
38456;DHT22;24237;50.106;20.014;2022-09-20T18:23:10;13.50;99.90
38456;DHT22;24237;50.106;20.014;2022-09-20T18:25:36;13.40;99.90
38456;DHT22;24237;50.106;20.014;2022-09-20T18:28:22;13.40;99.90
38456;DHT22;24237;50.106;20.014;2022-09-20T18:30:57;13.50;99.90
38456;DHT22;24237;50.106;20.014;2022-09-20T18:33:22;13.50;99.90
38456;DHT22;24237;50.106;20.014;2022-09-20T18:35:50;13.50;99.90
38456;DHT22;24237;50.106;20.014;2022-09-20T18:38:16;13.40;99.90
38456;DHT22;24237;50.106;20.014;2022-09-20T18:40:53;13.40;99.90
38456;DHT22;24237;50.106;20.014;2022-09-20T18:43:20;13.50;99.90
38456;DHT22;24237;50.106;20.014;2022-09-20T18:45:51;13.60;99.90
38456;DHT22;24237;50.106;20.014;2022-09-20T18:48:22;13.40;99.90
38456;DHT22;24237;50.106;20.014;2022-09-20T18:51:14;13.60;99.90
38456;DHT22;24237;50.106;20.014;2022-09-20T18:53:40;13.40;99.90
38456;DHT22;24237;50.106;20.014;2022-09-20T18:58:32;13.10;99.90
38456;DHT22;24237;50.106;20.014;2022-09-20T19:04:26;13.30;99.90
38456;DHT22;24237;50.106;20.014;2022-09-20T19:06:59;13.20;99.90
38456;DHT22;24237;50.106;20.014;2022-09-20T19:12:23;13.00;99.90
38456;DHT22;24237;50.106;20.014;2022-09-20T19:23:44;12.80;99.90
38456;DHT22;24237;50.106;20.014;2022-09-20T19:28:45;13.00;99.90
38456;DHT22;24237;50.106;20.014;2022-09-20T19:31:23;12.90;99.90
38456;DHT22;24237;50.106;20.014;2022-09-20T19:33:54;12.90;99.90
38456;DHT22;24237;50.106;20.014;2022-09-20T19:36:24;12.90;99.90
38456;DHT22;24237;50.106;20.014;2022-09-20T19:39:01;12.90;99.90
38456;DHT22;24237;50.106;20.014;2022-09-20T19:41:46;13.00;99.90
38456;DHT22;24237;50.106;20.014;2022-09-20T19:47:34;13.10;99.90
38456;DHT22;24237;50.106;20.014;2022-09-20T19:50:28;12.90;99.90
38456;DHT22;24237;50.106;20.014;2022-09-20T19:52:59;12.90;99.90
38456;DHT22;24237;50.106;20.014;2022-09-20T19:55:31;12.90;99.90
38456;DHT22;24237;50.106;20.014;2022-09-20T19:57:57;12.80;99.90
38456;DHT22;24237;50.106;20.014;2022-09-20T20:00:24;12.80;99.90
38456;DHT22;24237;50.106;20.014;2022-09-20T20:02:50;12.90;99.90
38456;DHT22;24237;50.106;20.014;2022-09-20T20:05:18;12.90;99.90
38456;DHT22;24237;50.106;20.014;2022-09-20T20:07:57;12.60;99.90
38456;DHT22;24237;50.106;20.014;2022-09-20T20:16:14;12.50;99.90
38456;DHT22;24237;50.106;20.014;2022-09-20T20:19:07;12.70;99.90
38456;DHT22;24237;50.106;20.014;2022-09-20T20:21:57;12.60;99.90
38456;DHT22;24237;50.106;20.014;2022-09-20T20:24:25;12.50;99.90
38456;DHT22;24237;50.106;20.014;2022-09-20T20:26:54;12.60;99.90
38456;DHT22;24237;50.106;20.014;2022-09-20T20:29:19;12.50;99.90
38456;DHT22;24237;50.106;20.014;2022-09-20T20:31:45;12.60;99.90
38456;DHT22;24237;50.106;20.014;2022-09-20T20:34:11;12.70;99.90
38456;DHT22;24237;50.106;20.014;2022-09-20T20:36:42;12.80;99.90
38456;DHT22;24237;50.106;20.014;2022-09-20T20:39:09;12.70;99.90
38456;DHT22;24237;50.106;20.014;2022-09-20T20:41:34;12.70;99.90
38456;DHT22;24237;50.106;20.014;2022-09-20T20:44:00;12.60;99.90
38456;DHT22;24237;50.106;20.014;2022-09-20T20:46:30;12.60;99.90
38456;DHT22;24237;50.106;20.014;2022-09-20T20:48:57;12.70;99.90
38456;DHT22;24237;50.106;20.014;2022-09-20T20:51:23;12.60;99.90